Time;durP1;ratioP1;P1;durP2;ratioP2;P2;SDS_P1;SDS_P2;PMS_P1;PMS_P2;Temp;Humidity;BMP_temperature;BMP_pressure;BME280_temperature;BME280_humidity;BME280_pressure;Samples;Min_cycle;Max_cycle;Signal;HPM_P1;HPM_P2
2024/01/04 00:01:36;;;;;;;6.82;1.92;;;32.00;92.60;;;;;;5056493;28;20031;-72
2024/01/04 00:04:03;;;;;;;3.33;1.38;;;32.00;91.50;;;;;;5051784;28;20090;-71
2024/01/04 00:06:31;;;;;;;3.92;1.58;;;31.80;90.20;;;;;;5031186;28;20119;-71
2024/01/04 00:08:58;;;;;;;3.53;2.05;;;31.60;90.70;;;;;;5048894;28;20041;-72
2024/01/04 00:11:25;;;;;;;4.90;1.45;;;31.40;90.90;;;;;;5058898;28;20024;-73
2024/01/04 00:13:55;;;;;;;6.10;1.63;;;31.50;91.30;;;;;;5051864;28;20411;-72
2024/01/04 00:16:23;;;;;;;5.88;1.92;;;31.60;91.40;;;;;;5034392;28;20369;-74
2024/01/04 00:18:50;;;;;;;4.13;1.55;;;31.70;91.30;;;;;;5052232;28;20481;-74
2024/01/04 00:21:17;;;;;;;5.47;1.67;;;31.90;90.90;;;;;;5055919;28;20083;-74
2024/01/04 00:23:45;;;;;;;3.97;1.63;;;32.00;90.70;;;;;;5056812;28;20035;-73
2024/01/04 00:26:12;;;;;;;4.47;2.05;;;32.10;90.10;;;;;;5036687;28;20032;-73
2024/01/04 00:28:39;;;;;;;4.32;1.80;;;31.90;90.50;;;;;;5052620;28;20028;-73
2024/01/04 00:31:07;;;;;;;6.10;1.77;;;31.90;90.40;;;;;;5056387;28;20039;-72
2024/01/04 00:33:34;;;;;;;5.45;2.00;;;31.90;90.60;;;;;;5054859;28;20358;-73
2024/01/04 00:36:02;;;;;;;4.90;2.05;;;32.10;90.60;;;;;;5055515;28;20100;-74
2024/01/04 00:38:29;;;;;;;11.75;2.30;;;32.30;90.40;;;;;;5057684;28;20017;-74
2024/01/04 00:40:56;;;;;;;6.22;2.10;;;32.60;90.20;;;;;;5063447;28;20032;-72
2024/01/04 00:43:23;;;;;;;8.52;2.72;;;32.70;90.10;;;;;;5055860;28;20016;-73
2024/01/04 00:45:51;;;;;;;8.57;2.38;;;32.80;90.40;;;;;;5054741;28;20041;-74
2024/01/04 00:48:18;;;;;;;10.32;2.28;;;32.70;90.30;;;;;;5057921;28;20037;-72
2024/01/04 00:50:45;;;;;;;7.72;2.88;;;32.80;90.00;;;;;;5059315;28;20029;-72
2024/01/04 00:53:13;;;;;;;6.13;2.40;;;33.00;89.00;;;;;;5059835;28;20097;-73
2024/01/04 00:55:40;;;;;;;5.63;2.10;;;33.00;88.20;;;;;;5057244;28;20058;-73
2024/01/04 00:58:07;;;;;;;6.47;1.88;;;33.10;88.10;;;;;;5052717;28;20021;-72
2024/01/04 01:00:35;;;;;;;4.22;2.08;;;33.10;86.90;;;;;;5046150;28;20029;-71
2024/01/04 01:03:03;;;;;;;3.90;1.80;;;33.10;86.20;;;;;;5058491;28;20055;-72
2024/01/04 01:05:30;;;;;;;5.63;1.90;;;33.00;87.10;;;;;;5052748;28;20048;-72
2024/01/04 01:08:01;;;;;;;5.18;2.28;;;32.80;86.60;;;;;;5060870;28;20119;-73
2024/01/04 01:10:29;;;;;;;8.35;1.98;;;32.50;87.40;;;;;;5035060;28;20052;-73
2024/01/04 01:12:57;;;;;;;5.05;2.28;;;32.20;87.10;;;;;;5059234;28;20068;-72
2024/01/04 01:15:24;;;;;;;4.13;1.92;;;31.80;88.60;;;;;;5061268;28;20318;-72
2024/01/04 01:17:52;;;;;;;6.07;2.28;;;31.50;90.20;;;;;;5043974;28;20033;-72
2024/01/04 01:20:19;;;;;;;8.13;1.90;;;31.60;90.40;;;;;;5058489;28;20029;-72
2024/01/04 01:22:46;;;;;;;4.53;1.92;;;31.90;90.20;;;;;;5061125;28;20032;-72
2024/01/04 01:25:14;;;;;;;5.88;2.50;;;32.30;89.40;;;;;;5056609;28;20040;-72
2024/01/04 01:27:41;;;;;;;15.43;2.45;;;32.60;89.10;;;;;;5041478;28;20020;-73
2024/01/04 01:30:09;;;;;;;9.05;2.63;;;32.80;88.40;;;;;;5059517;28;20020;-71
2024/01/04 01:32:36;;;;;;;8.02;2.13;;;32.90;89.20;;;;;;5062748;28;20501;-71
2024/01/04 01:35:04;;;;;;;11.55;2.53;;;32.90;89.30;;;;;;5058113;28;20025;-71
2024/01/04 01:37:31;;;;;;;6.18;1.83;;;32.60;89.70;;;;;;5056986;28;20024;-72
2024/01/04 01:39:59;;;;;;;7.93;2.03;;;32.40;89.50;;;;;;5053710;28;20029;-72
2024/01/04 01:42:26;;;;;;;8.00;2.25;;;32.10;90.10;;;;;;5060248;28;20086;-71
2024/01/04 01:44:53;;;;;;;11.43;3.17;;;31.20;91.00;;;;;;5051561;28;20079;-72
2024/01/04 01:47:24;;;;;;;8.07;3.33;;;30.70;91.80;;;;;;5059687;28;20052;-72
2024/01/04 01:49:52;;;;;;;11.30;2.83;;;30.40;92.30;;;;;;5037343;28;20029;-71
2024/01/04 01:52:20;;;;;;;12.10;3.17;;;30.10;92.60;;;;;;5057110;28;20066;-71
2024/01/04 01:54:48;;;;;;;6.60;2.40;;;30.10;93.00;;;;;;5049232;28;20032;-71
2024/01/04 01:57:16;;;;;;;7.45;2.40;;;30.20;92.30;;;;;;5050343;28;20029;-72
2024/01/04 01:59:45;;;;;;;7.43;2.30;;;30.00;92.10;;;;;;5033186;28;20120;-73
2024/01/04 02:02:13;;;;;;;7.82;2.00;;;29.90;91.70;;;;;;5050535;28;20029;-73
2024/01/04 02:04:41;;;;;;;10.15;2.03;;;29.60;91.40;;;;;;5059206;28;20072;-72
2024/01/04 02:07:10;;;;;;;6.43;1.80;;;29.30;91.40;;;;;;5054259;28;20119;-72
2024/01/04 02:09:39;;;;;;;4.45;2.08;;;29.00;91.70;;;;;;5049224;28;20127;-72
2024/01/04 02:12:12;;;;;;;10.73;2.83;;;28.70;92.10;;;;;;5054108;28;20803;-68
2024/01/04 02:14:40;;;;;;;5.70;1.65;;;28.60;92.30;;;;;;5035838;28;20033;-67
2024/01/04 02:17:08;;;;;;;3.47;1.77;;;28.30;92.60;;;;;;5054019;28;20079;-67
2024/01/04 02:19:45;;;;;;;5.97;2.00;;;28.00;92.70;;;;;;5051397;28;20474;-68
2024/01/04 02:22:14;;;;;;;5.53;1.75;;;27.80;93.00;;;;;;5036703;28;20592;-67
2024/01/04 02:24:42;;;;;;;4.30;2.10;;;27.70;93.20;;;;;;5048593;28;21045;-68
2024/01/04 02:27:09;;;;;;;7.95;2.35;;;27.50;93.30;;;;;;5048736;28;20047;-68
2024/01/04 02:29:37;;;;;;;7.03;2.00;;;27.40;93.50;;;;;;5048480;28;20071;-67
2024/01/04 02:32:05;;;;;;;6.15;2.40;;;27.30;93.60;;;;;;5047043;28;22340;-68
2024/01/04 02:34:32;;;;;;;4.63;2.05;;;27.30;93.70;;;;;;5054556;28;20033;-67
2024/01/04 02:37:00;;;;;;;6.15;2.25;;;27.10;94.10;;;;;;5053117;28;20083;-68
2024/01/04 02:39:29;;;;;;;5.78;2.58;;;27.00;94.30;;;;;;5054381;28;20056;-68
2024/01/04 02:41:57;;;;;;;6.75;2.92;;;26.90;94.40;;;;;;5037415;28;20111;-67
2024/01/04 02:44:24;;;;;;;7.20;2.60;;;26.90;94.40;;;;;;5038338;28;20086;-68
2024/01/04 02:46:56;;;;;;;7.05;2.35;;;26.80;94.50;;;;;;5056035;28;20052;-68
2024/01/04 02:49:25;;;;;;;9.70;2.92;;;26.80;94.40;;;;;;5058164;28;20462;-68
2024/01/04 02:51:55;;;;;;;5.57;2.05;;;26.80;94.50;;;;;;5058212;28;20090;-68
2024/01/04 02:54:23;;;;;;;6.40;2.63;;;26.80;94.50;;;;;;5057885;28;20067;-68
2024/01/04 02:56:50;;;;;;;5.93;2.20;;;26.80;94.70;;;;;;5057876;28;20036;-68
2024/01/04 02:59:18;;;;;;;8.43;2.63;;;26.70;95.00;;;;;;5056709;28;20029;-66
2024/01/04 03:01:48;;;;;;;7.97;3.45;;;26.50;95.40;;;;;;5056225;28;20072;-66
2024/01/04 03:04:16;;;;;;;9.35;2.65;;;26.30;95.70;;;;;;5054202;28;20358;-67
2024/01/04 03:06:43;;;;;;;9.35;3.08;;;26.20;95.80;;;;;;5056134;28;20094;-66
2024/01/04 03:09:11;;;;;;;4.50;2.35;;;26.20;95.80;;;;;;5056532;28;20048;-67
2024/01/04 03:11:38;;;;;;;9.25;3.15;;;26.10;96.60;;;;;;5055900;28;20496;-66
2024/01/04 03:14:06;;;;;;;10.73;3.00;;;25.90;97.60;;;;;;5055432;28;20043;-66
2024/01/04 03:16:34;;;;;;;10.73;3.22;;;25.40;99.40;;;;;;5055358;28;20829;-66
2024/01/04 03:19:05;;;;;;;15.88;3.70;;;25.10;99.90;;;;;;5057433;28;20139;-67
2024/01/04 03:21:33;;;;;;;15.20;3.30;;;25.00;99.90;;;;;;5053070;28;20025;-67
2024/01/04 03:24:00;;;;;;;9.32;3.58;;;24.90;99.90;;;;;;5053272;28;20505;-67
2024/01/04 03:26:28;;;;;;;9.07;3.15;;;25.00;99.90;;;;;;5054614;28;20040;-68
2024/01/04 03:28:55;;;;;;;6.53;2.92;;;25.10;99.90;;;;;;5049519;28;20466;-68
2024/01/04 03:31:23;;;;;;;7.13;2.78;;;25.10;99.90;;;;;;5034132;28;20037;-67
2024/01/04 03:33:51;;;;;;;7.55;3.40;;;25.10;99.90;;;;;;5047641;28;20455;-68
2024/01/04 03:36:19;;;;;;;9.70;3.00;;;25.00;99.90;;;;;;5053477;28;20481;-68
2024/01/04 03:38:46;;;;;;;11.60;3.10;;;25.10;99.90;;;;;;5050754;28;20025;-67
2024/01/04 03:41:14;;;;;;;9.02;2.88;;;25.10;99.90;;;;;;5039493;28;20025;-68
2024/01/04 03:43:41;;;;;;;7.90;3.03;;;25.20;99.90;;;;;;5047085;28;20037;-68
2024/01/04 03:46:12;;;;;;;9.05;2.88;;;25.10;99.90;;;;;;5047757;28;20378;-68
2024/01/04 03:48:39;;;;;;;8.65;3.20;;;25.00;99.90;;;;;;5031831;28;20036;-68
2024/01/04 03:51:06;;;;;;;8.95;3.03;;;24.90;99.90;;;;;;5047401;28;20036;-68
2024/01/04 03:53:34;;;;;;;8.55;3.22;;;25.00;99.90;;;;;;5052723;28;20029;-67
2024/01/04 03:56:01;;;;;;;10.10;3.22;;;25.00;99.90;;;;;;5048447;28;20025;-67
2024/01/04 03:58:28;;;;;;;8.65;3.10;;;25.00;99.90;;;;;;5050825;28;20537;-68
2024/01/04 04:00:56;;;;;;;9.57;3.38;;;25.00;99.90;;;;;;5049161;28;20508;-70
2024/01/04 04:03:23;;;;;;;9.40;4.50;;;25.00;99.90;;;;;;5035693;28;20036;-68
2024/01/04 04:05:50;;;;;;;17.23;4.78;;;25.10;99.90;;;;;;5046637;28;20029;-68
2024/01/04 04:08:18;;;;;;;14.13;4.40;;;25.00;99.90;;;;;;5045706;28;20017;-68
2024/01/04 04:10:45;;;;;;;10.38;3.85;;;25.00;99.90;;;;;;5047183;28;20048;-67
2024/01/04 04:13:13;;;;;;;11.23;4.40;;;25.00;99.90;;;;;;5056347;28;20032;-68
2024/01/04 04:15:40;;;;;;;12.73;3.70;;;24.90;99.90;;;;;;5051616;28;20028;-68
2024/01/04 04:18:07;;;;;;;6.07;3.30;;;25.00;99.90;;;;;;5049546;28;20037;-69
2024/01/04 04:20:35;;;;;;;10.63;3.20;;;25.00;99.90;;;;;;5047687;28;20048;-68
2024/01/04 04:23:02;;;;;;;6.22;3.15;;;25.00;99.90;;;;;;5047221;28;20143;-68
2024/01/04 04:25:29;;;;;;;11.38;3.50;;;24.80;99.90;;;;;;5053077;28;20037;-68
2024/01/04 04:27:57;;;;;;;7.32;2.92;;;24.90;99.90;;;;;;5050867;28;20524;-68
2024/01/04 04:30:44;;;;;;;10.02;3.60;;;24.80;99.90;;;;;;5032856;28;20480;-69
2024/01/04 04:33:11;;;;;;;10.93;3.60;;;24.70;99.90;;;;;;5056420;28;20035;-68
2024/01/04 04:35:39;;;;;;;10.85;3.72;;;24.80;99.90;;;;;;5054463;28;20029;-68
2024/01/04 04:38:06;;;;;;;12.55;3.70;;;24.90;99.90;;;;;;5054221;28;20054;-69
2024/01/04 04:40:33;;;;;;;10.77;4.00;;;24.90;99.90;;;;;;5054341;28;20112;-68
2024/01/04 04:43:01;;;;;;;9.30;4.30;;;24.80;99.90;;;;;;5059480;28;20790;-69
2024/01/04 04:45:28;;;;;;;9.95;3.67;;;24.70;99.90;;;;;;5053640;28;20044;-68
2024/01/04 04:47:55;;;;;;;10.88;3.72;;;24.70;99.90;;;;;;5054354;28;20021;-67
2024/01/04 04:50:23;;;;;;;14.32;4.35;;;24.60;99.90;;;;;;5053873;28;20036;-67
2024/01/04 04:52:50;;;;;;;10.65;3.15;;;24.60;99.90;;;;;;5049369;28;20099;-68
2024/01/04 04:55:18;;;;;;;10.70;3.47;;;24.60;99.90;;;;;;5041660;28;20462;-67
2024/01/04 04:57:45;;;;;;;13.02;4.90;;;24.60;99.90;;;;;;5056641;28;20029;-70
2024/01/04 05:00:13;;;;;;;12.43;4.07;;;24.50;99.90;;;;;;5046700;28;20465;-71
2024/01/04 05:02:40;;;;;;;12.02;3.40;;;24.30;99.90;;;;;;5047802;28;20118;-69
2024/01/04 05:05:08;;;;;;;10.30;3.70;;;24.10;99.90;;;;;;5048445;28;20045;-70
2024/01/04 05:07:35;;;;;;;11.00;3.42;;;24.10;99.90;;;;;;5042861;28;20032;-70
2024/01/04 05:10:04;;;;;;;14.05;3.88;;;24.00;99.90;;;;;;5042955;28;20049;-71
2024/01/04 05:12:31;;;;;;;11.18;3.60;;;23.80;99.90;;;;;;5045444;28;20021;-70
2024/01/04 05:14:59;;;;;;;11.45;3.95;;;23.60;99.90;;;;;;5046983;28;20021;-70
2024/01/04 05:17:27;;;;;;;10.75;3.78;;;23.60;99.90;;;;;;5043793;28;20485;-70
2024/01/04 05:19:54;;;;;;;8.65;3.40;;;23.60;99.90;;;;;;5043310;28;20036;-70
2024/01/04 05:22:22;;;;;;;14.68;4.75;;;23.60;99.90;;;;;;5043958;28;20108;-70
2024/01/04 05:24:50;;;;;;;7.28;3.80;;;23.60;99.90;;;;;;5043738;28;20096;-69
2024/01/04 05:27:17;;;;;;;8.95;3.83;;;23.70;99.90;;;;;;5031784;28;20117;-68
2024/01/04 05:29:45;;;;;;;13.68;4.15;;;23.70;99.90;;;;;;5046585;28;20036;-68
2024/01/04 05:32:12;;;;;;;9.63;3.67;;;23.90;99.90;;;;;;5047229;28;20052;-67
2024/01/04 05:34:40;;;;;;;13.02;4.20;;;24.00;99.90;;;;;;5034020;28;20079;-66
2024/01/04 05:37:07;;;;;;;9.40;3.42;;;24.10;99.90;;;;;;5054281;28;20025;-68
2024/01/04 05:39:35;;;;;;;9.45;3.53;;;24.10;99.90;;;;;;5050845;28;20021;-68
2024/01/04 05:42:03;;;;;;;14.55;3.97;;;24.10;99.90;;;;;;5049100;28;20033;-68
2024/01/04 05:44:31;;;;;;;8.98;3.55;;;24.20;99.90;;;;;;5052873;28;20052;-68
2024/01/04 05:46:58;;;;;;;10.07;3.63;;;24.30;99.90;;;;;;5049412;28;20059;-68
2024/01/04 05:49:25;;;;;;;11.70;4.03;;;24.20;99.90;;;;;;5048233;28;20029;-68
2024/01/04 05:51:53;;;;;;;14.07;4.47;;;24.20;99.90;;;;;;5052703;28;20100;-67
2024/01/04 05:54:22;;;;;;;12.93;3.83;;;24.10;99.90;;;;;;5043069;28;20086;-67
2024/01/04 05:56:49;;;;;;;11.15;4.57;;;24.10;99.90;;;;;;5055312;28;20029;-67
2024/01/04 05:59:17;;;;;;;12.82;3.63;;;24.20;99.90;;;;;;5052978;28;20381;-67
2024/01/04 06:01:44;;;;;;;13.43;4.78;;;24.30;99.90;;;;;;5052289;28;20087;-67
2024/01/04 06:04:11;;;;;;;12.40;3.83;;;24.30;99.90;;;;;;5049721;28;20059;-68
2024/01/04 06:06:39;;;;;;;13.93;3.80;;;24.30;99.90;;;;;;5052539;28;20025;-68
2024/01/04 06:09:06;;;;;;;15.27;4.10;;;24.30;99.90;;;;;;5054576;28;20049;-67
2024/01/04 06:11:38;;;;;;;12.27;3.90;;;24.20;99.90;;;;;;5053576;28;20076;-68
2024/01/04 06:14:08;;;;;;;8.60;4.03;;;24.20;99.90;;;;;;5058559;28;20369;-68
2024/01/04 06:16:35;;;;;;;9.52;3.60;;;24.20;99.90;;;;;;5044422;28;20083;-70
2024/01/04 06:19:04;;;;;;;11.15;3.83;;;24.30;99.90;;;;;;5035497;28;20423;-69
2024/01/04 06:21:32;;;;;;;12.32;3.92;;;24.40;99.90;;;;;;5044073;28;20040;-69
2024/01/04 06:24:00;;;;;;;12.27;3.33;;;24.40;99.90;;;;;;5042746;28;20028;-69
2024/01/04 06:26:27;;;;;;;11.43;3.30;;;24.50;99.90;;;;;;5048915;28;20068;-70
2024/01/04 06:28:54;;;;;;;10.00;3.75;;;24.50;99.90;;;;;;5048795;28;20032;-69
2024/01/04 06:31:22;;;;;;;9.40;3.80;;;24.60;99.90;;;;;;5051683;28;20021;-68
2024/01/04 06:33:49;;;;;;;15.45;5.07;;;24.60;99.90;;;;;;5063706;28;20477;-68
2024/01/04 06:36:16;;;;;;;13.82;5.57;;;24.80;99.90;;;;;;5047136;28;20497;-68
2024/01/04 06:38:44;;;;;;;14.15;5.63;;;24.80;99.90;;;;;;5039637;28;20103;-68
2024/01/04 06:41:12;;;;;;;15.23;5.32;;;24.80;99.90;;;;;;5054364;28;20373;-68
2024/01/04 06:43:39;;;;;;;20.27;5.68;;;24.70;99.90;;;;;;5048758;28;20035;-69
2024/01/04 06:46:06;;;;;;;12.52;4.93;;;24.50;99.90;;;;;;5047234;28;21596;-68
2024/01/04 06:48:34;;;;;;;13.18;4.88;;;24.50;99.90;;;;;;5045215;28;20028;-70
2024/01/04 06:51:01;;;;;;;13.18;4.45;;;24.40;99.90;;;;;;5045177;28;20132;-70
2024/01/04 06:53:28;;;;;;;13.93;4.55;;;24.50;99.90;;;;;;5047258;28;20044;-70
2024/01/04 06:55:56;;;;;;;10.10;3.97;;;24.70;99.90;;;;;;5029759;28;20482;-69
2024/01/04 06:58:23;;;;;;;11.00;4.10;;;24.50;99.90;;;;;;5048210;28;20489;-69
2024/01/04 07:00:52;;;;;;;15.75;4.15;;;24.60;99.90;;;;;;5048759;28;20020;-69
2024/01/04 07:03:20;;;;;;;15.18;3.78;;;24.60;99.90;;;;;;5048764;28;20082;-69
2024/01/04 07:05:47;;;;;;;12.63;3.95;;;24.50;99.90;;;;;;5045354;28;20040;-67
2024/01/04 07:08:15;;;;;;;12.45;4.53;;;24.40;99.90;;;;;;5043027;28;20040;-68
2024/01/04 07:10:43;;;;;;;12.32;4.55;;;24.30;99.90;;;;;;5052272;28;20049;-68
2024/01/04 07:13:10;;;;;;;10.02;4.20;;;24.30;99.90;;;;;;5055067;28;20036;-69
2024/01/04 07:15:38;;;;;;;12.82;4.00;;;24.40;99.90;;;;;;5053230;28;20032;-69
2024/01/04 07:18:06;;;;;;;11.50;4.07;;;24.50;99.90;;;;;;5028939;28;20087;-68
2024/01/04 07:20:33;;;;;;;11.02;3.92;;;24.60;99.90;;;;;;5047056;28;20074;-68
2024/01/04 07:23:01;;;;;;;11.48;3.67;;;24.60;99.90;;;;;;5055654;28;20097;-68
2024/01/04 07:25:30;;;;;;;8.90;3.97;;;24.40;99.90;;;;;;5059756;28;20037;-68
2024/01/04 07:27:57;;;;;;;7.65;3.50;;;24.40;99.90;;;;;;5050813;28;20051;-68
2024/01/04 07:30:25;;;;;;;12.80;4.03;;;24.20;99.90;;;;;;5057547;28;20050;-68
2024/01/04 07:32:52;;;;;;;15.15;3.92;;;24.50;99.90;;;;;;5059980;28;20033;-68
2024/01/04 07:35:23;;;;;;;13.60;4.10;;;24.10;99.90;;;;;;5055873;28;20113;-68
2024/01/04 07:37:50;;;;;;;10.35;4.25;;;24.20;99.90;;;;;;5061139;28;20119;-69
2024/01/04 07:40:18;;;;;;;12.55;4.75;;;24.20;99.90;;;;;;5057031;28;20029;-69
2024/01/04 07:42:45;;;;;;;12.32;4.30;;;24.30;99.90;;;;;;5059804;28;20074;-68
2024/01/04 07:45:12;;;;;;;8.57;3.70;;;24.20;99.90;;;;;;5060094;28;20036;-68
2024/01/04 07:47:40;;;;;;;14.25;4.47;;;24.20;99.90;;;;;;5061439;28;20025;-68
2024/01/04 07:50:08;;;;;;;10.05;4.45;;;24.10;99.90;;;;;;5057634;28;20028;-67
2024/01/04 07:52:35;;;;;;;10.30;4.25;;;24.10;99.90;;;;;;5055994;28;20028;-68
2024/01/04 07:55:03;;;;;;;11.73;3.85;;;24.00;99.90;;;;;;5058280;28;20032;-68
2024/01/04 07:57:30;;;;;;;13.65;4.75;;;24.10;99.90;;;;;;5058661;28;20033;-68
2024/01/04 07:59:57;;;;;;;13.77;4.63;;;24.00;99.90;;;;;;5059798;28;20051;-68
2024/01/04 08:02:28;;;;;;;12.10;3.72;;;24.00;99.90;;;;;;5059496;28;20590;-69
2024/01/04 08:04:56;;;;;;;9.27;4.05;;;24.10;99.90;;;;;;5057545;28;20718;-68
2024/01/04 08:07:23;;;;;;;15.45;4.78;;;24.00;99.90;;;;;;5058734;28;20036;-68
2024/01/04 08:09:51;;;;;;;12.00;4.60;;;24.00;99.90;;;;;;5052999;28;20059;-69
2024/01/04 08:12:19;;;;;;;12.20;3.80;;;24.00;99.90;;;;;;5054977;28;20588;-68
2024/01/04 08:14:46;;;;;;;11.30;4.15;;;23.90;99.90;;;;;;5052499;28;20082;-69
2024/01/04 08:17:13;;;;;;;12.35;4.78;;;24.00;99.90;;;;;;5060582;28;20494;-68
2024/01/04 08:19:40;;;;;;;11.93;4.70;;;24.00;99.90;;;;;;5063327;28;20489;-69
2024/01/04 08:22:08;;;;;;;9.15;4.15;;;24.00;99.90;;;;;;5061559;28;20017;-68
2024/01/04 08:24:36;;;;;;;12.45;4.75;;;24.00;99.90;;;;;;5059640;28;20047;-69
2024/01/04 08:27:03;;;;;;;16.50;4.20;;;24.00;99.90;;;;;;5058751;28;20028;-68
2024/01/04 08:29:31;;;;;;;16.10;4.40;;;23.90;99.90;;;;;;5060488;28;20025;-68
2024/01/04 08:31:58;;;;;;;14.73;3.70;;;23.80;99.90;;;;;;5048577;28;20025;-69
2024/01/04 08:34:27;;;;;;;12.88;4.03;;;23.80;99.90;;;;;;5060233;28;20051;-69
2024/01/04 08:36:54;;;;;;;12.07;5.00;;;23.80;99.90;;;;;;5045600;28;20068;-69
2024/01/04 08:39:21;;;;;;;13.60;4.85;;;23.90;99.90;;;;;;5050273;28;20040;-69
2024/01/04 08:41:49;;;;;;;10.23;4.43;;;24.10;99.90;;;;;;5057443;28;20040;-68
2024/01/04 08:44:16;;;;;;;8.50;4.20;;;24.20;99.90;;;;;;5059607;28;20051;-68
2024/01/04 08:46:43;;;;;;;11.43;3.90;;;24.30;99.90;;;;;;5058979;28;20060;-68
2024/01/04 08:49:11;;;;;;;11.07;3.95;;;24.30;99.90;;;;;;5050784;28;20032;-69
2024/01/04 08:51:39;;;;;;;8.27;4.05;;;24.30;99.90;;;;;;5046380;28;20025;-68
2024/01/04 08:54:06;;;;;;;14.02;4.97;;;24.20;99.90;;;;;;5053789;28;20413;-69
2024/01/04 08:56:35;;;;;;;15.02;3.85;;;24.20;99.90;;;;;;5056318;28;20025;-69
2024/01/04 08:59:03;;;;;;;11.88;3.90;;;24.00;99.90;;;;;;5046095;28;20332;-69
2024/01/04 09:01:31;;;;;;;10.88;4.05;;;24.00;99.90;;;;;;5045716;28;20539;-69
2024/01/04 09:03:58;;;;;;;8.63;3.35;;;24.00;99.90;;;;;;5055392;28;20033;-69
2024/01/04 09:06:25;;;;;;;17.40;3.80;;;23.70;99.90;;;;;;5059034;28;20047;-69
2024/01/04 09:08:53;;;;;;;13.25;3.58;;;23.70;99.90;;;;;;5060845;28;20087;-69
2024/01/04 09:11:20;;;;;;;7.88;3.10;;;23.70;99.90;;;;;;5051839;28;20075;-69
2024/01/04 09:13:48;;;;;;;8.85;3.38;;;23.60;99.90;;;;;;5050983;28;20823;-69
2024/01/04 09:16:15;;;;;;;12.32;3.13;;;23.60;99.90;;;;;;5057499;28;20024;-70
2024/01/04 09:18:42;;;;;;;10.70;3.15;;;23.60;99.90;;;;;;5057602;28;20469;-69
2024/01/04 09:21:10;;;;;;;9.15;2.75;;;23.70;99.90;;;;;;5054636;28;20036;-69
2024/01/04 09:23:37;;;;;;;8.43;2.50;;;23.70;99.90;;;;;;5053468;28;20433;-69
2024/01/04 09:26:09;;;;;;;11.60;2.80;;;23.60;99.90;;;;;;5056487;28;20178;-69
2024/01/04 09:28:36;;;;;;;8.57;2.88;;;23.50;99.90;;;;;;5052697;28;20443;-70
2024/01/04 09:31:03;;;;;;;11.50;2.20;;;23.50;99.90;;;;;;5059105;28;20029;-69
2024/01/04 09:33:31;;;;;;;11.70;2.47;;;23.60;99.90;;;;;;5052014;28;20021;-69
2024/01/04 09:35:58;;;;;;;12.20;2.38;;;23.60;99.90;;;;;;5050111;28;20021;-70
2024/01/04 09:38:27;;;;;;;8.65;2.60;;;23.60;99.90;;;;;;5049553;28;20494;-68
2024/01/04 09:41:05;;;;;;;11.38;2.90;;;23.60;99.90;;;;;;5049033;28;20021;-68
2024/01/04 09:43:32;;;;;;;12.13;2.65;;;23.40;99.90;;;;;;5048013;28;20101;-68
2024/01/04 09:46:01;;;;;;;10.35;2.78;;;23.40;99.90;;;;;;5053738;28;20078;-69
2024/01/04 09:48:33;;;;;;;7.28;2.13;;;23.40;99.90;;;;;;5056917;28;20465;-68
2024/01/04 09:51:01;;;;;;;10.93;2.63;;;23.50;99.90;;;;;;5048752;28;20774;-69
2024/01/04 09:53:29;;;;;;;9.93;2.25;;;23.50;99.90;;;;;;5032320;28;20025;-69
2024/01/04 09:55:59;;;;;;;12.10;2.50;;;23.60;99.90;;;;;;5055540;28;20107;-69
2024/01/04 09:58:27;;;;;;;10.13;2.47;;;23.60;99.90;;;;;;5057754;28;20454;-68
2024/01/04 10:00:57;;;;;;;10.98;2.10;;;23.60;99.90;;;;;;5057489;28;20029;-69
2024/01/04 10:03:25;;;;;;;12.10;2.50;;;23.50;99.90;;;;;;5055362;28;20021;-69
2024/01/04 10:05:54;;;;;;;10.73;2.28;;;23.50;99.90;;;;;;5053119;28;20037;-68
2024/01/04 10:08:42;;;;;;;14.00;2.63;;;23.40;99.90;;;;;;5052047;28;20029;-68
2024/01/04 10:11:25;;;;;;;8.05;3.13;;;23.40;99.90;;;;;;5051518;28;20049;-68
2024/01/04 10:13:53;;;;;;;13.00;4.05;;;23.50;99.90;;;;;;5048173;28;20064;-69
2024/01/04 10:16:20;;;;;;;11.75;2.65;;;23.20;99.90;;;;;;5048395;28;20024;-68
2024/01/04 10:18:48;;;;;;;10.80;2.40;;;23.30;99.90;;;;;;5051281;28;20108;-67
2024/01/04 10:21:15;;;;;;;9.70;2.78;;;23.20;99.90;;;;;;5038062;28;20035;-68
2024/01/04 10:23:43;;;;;;;15.63;3.65;;;23.00;99.90;;;;;;5040814;28;20063;-69
2024/01/04 10:26:13;;;;;;;12.23;2.65;;;22.90;99.90;;;;;;5042413;28;20045;-69
2024/01/04 10:28:40;;;;;;;10.50;2.42;;;22.90;99.90;;;;;;5042094;28;20037;-69
2024/01/04 10:31:08;;;;;;;7.82;2.05;;;22.90;99.90;;;;;;5040813;28;20029;-68
2024/01/04 10:33:37;;;;;;;7.20;1.83;;;22.80;99.90;;;;;;5040385;28;20033;-69
2024/01/04 10:36:11;;;;;;;5.50;1.92;;;22.90;99.90;;;;;;5039647;28;20511;-69
2024/01/04 10:38:39;;;;;;;11.00;2.25;;;22.90;99.90;;;;;;5038949;28;20072;-69
2024/01/04 10:41:06;;;;;;;12.35;2.65;;;22.80;99.90;;;;;;5042928;28;20447;-68
2024/01/04 10:43:35;;;;;;;12.63;2.17;;;22.80;99.90;;;;;;5040656;28;20028;-68
2024/01/04 10:46:08;;;;;;;7.65;2.15;;;22.60;99.90;;;;;;5041386;28;20164;-68
2024/01/04 10:48:39;;;;;;;10.95;2.13;;;22.50;99.90;;;;;;5029262;28;20393;-69
2024/01/04 10:51:10;;;;;;;10.23;2.10;;;22.60;99.90;;;;;;5039114;28;20067;-69
2024/01/04 10:53:38;;;;;;;10.95;2.13;;;22.60;99.90;;;;;;5025911;28;20131;-69
2024/01/04 10:56:08;;;;;;;13.65;2.13;;;22.50;99.90;;;;;;5042716;28;21874;-69
2024/01/04 10:58:36;;;;;;;10.40;2.47;;;22.60;99.90;;;;;;5047797;28;20119;-68
2024/01/04 11:01:06;;;;;;;10.07;1.83;;;22.60;99.90;;;;;;5048479;28;22038;-69
2024/01/04 11:03:34;;;;;;;10.52;2.20;;;22.70;99.90;;;;;;5038013;28;20563;-69
2024/01/04 11:06:04;;;;;;;7.90;2.17;;;22.70;99.90;;;;;;5040914;28;20037;-69
2024/01/04 11:08:34;;;;;;;11.65;2.05;;;22.70;99.90;;;;;;5038319;28;20473;-69
2024/01/04 11:11:03;;;;;;;10.32;2.33;;;22.70;99.90;;;;;;5039116;28;20132;-68
2024/01/04 11:13:31;;;;;;;11.63;1.88;;;22.80;99.90;;;;;;5057913;28;20027;-68
2024/01/04 11:16:04;;;;;;;10.55;1.67;;;22.70;99.90;;;;;;5047240;28;20393;-69
2024/01/04 11:18:41;;;;;;;10.52;2.33;;;22.70;99.90;;;;;;5044138;28;20367;-68
2024/01/04 11:21:30;;;;;;;5.67;1.60;;;22.50;99.90;;;;;;5039792;28;20037;-68
2024/01/04 11:24:08;;;;;;;9.18;1.83;;;22.40;99.90;;;;;;5046203;28;20774;-68
2024/01/04 11:26:47;;;;;;;9.27;1.98;;;22.40;99.90;;;;;;5037878;28;20040;-69
2024/01/04 11:29:16;;;;;;;10.32;2.33;;;22.30;99.90;;;;;;5035191;28;20075;-68
2024/01/04 11:31:44;;;;;;;8.38;1.85;;;22.20;99.90;;;;;;5038310;28;20108;-69
2024/01/04 11:34:15;;;;;;;10.38;1.70;;;22.20;99.90;;;;;;5038266;28;20041;-67
2024/01/04 11:36:42;;;;;;;8.98;1.75;;;22.30;99.90;;;;;;5027100;28;20459;-68
2024/01/04 11:39:10;;;;;;;10.15;1.67;;;22.30;99.90;;;;;;5041679;28;20139;-67
2024/01/04 11:41:38;;;;;;;9.80;2.03;;;22.50;99.90;;;;;;5040406;28;20040;-67
2024/01/04 11:44:19;;;;;;;10.95;1.38;;;22.60;99.90;;;;;;5042286;28;20139;-67
2024/01/04 11:46:46;;;;;;;11.32;1.70;;;22.40;99.90;;;;;;5037806;28;20036;-67
2024/01/04 11:49:14;;;;;;;10.65;2.13;;;22.20;99.90;;;;;;5044580;28;20020;-67
2024/01/04 11:51:48;;;;;;;15.80;1.90;;;22.20;99.90;;;;;;5051042;28;20111;-67
2024/01/04 11:54:20;;;;;;;12.70;1.92;;;22.30;99.90;;;;;;5039600;28;20032;-68
2024/01/04 11:56:48;;;;;;;8.88;1.85;;;22.20;99.90;;;;;;5037814;28;20584;-68
2024/01/04 11:59:21;;;;;;;9.55;2.00;;;22.10;99.90;;;;;;5045257;28;20037;-67
2024/01/04 12:01:49;;;;;;;13.05;1.88;;;22.00;99.90;;;;;;5037599;28;20486;-68
2024/01/04 12:04:17;;;;;;;12.65;1.80;;;21.90;99.90;;;;;;5029768;28;20037;-68
2024/01/04 12:06:46;;;;;;;9.65;2.13;;;21.90;99.90;;;;;;5036244;28;20155;-68
2024/01/04 12:09:17;;;;;;;9.10;1.98;;;21.90;99.90;;;;;;5040927;28;20134;-69
2024/01/04 12:11:54;;;;;;;10.00;1.50;;;22.10;99.90;;;;;;5049905;28;20107;-69
2024/01/04 12:14:22;;;;;;;;;;;22.20;99.90;;;;;;5050390;28;20052;-68
2024/01/04 12:16:49;;;;;;;10.18;1.90;;;22.20;99.90;;;;;;5045234;28;20358;-68
2024/01/04 12:19:17;;;;;;;10.55;1.70;;;22.00;99.90;;;;;;5050223;28;20466;-68
2024/01/04 12:21:45;;;;;;;12.45;1.45;;;22.30;99.90;;;;;;5050021;28;20025;-68
2024/01/04 12:24:13;;;;;;;9.15;1.52;;;22.30;99.90;;;;;;5050444;28;20033;-67
2024/01/04 12:26:40;;;;;;;10.38;1.88;;;22.30;99.90;;;;;;5048558;28;20071;-69
2024/01/04 12:29:08;;;;;;;10.02;1.48;;;22.30;99.90;;;;;;5047031;28;20041;-68
2024/01/04 12:31:35;;;;;;;12.55;1.90;;;22.20;99.90;;;;;;5050791;28;20025;-68
2024/01/04 12:34:03;;;;;;;8.20;1.55;;;22.20;99.90;;;;;;5049386;28;20036;-69
2024/01/04 12:36:31;;;;;;;10.57;1.70;;;22.10;99.90;;;;;;5049029;28;20139;-68
2024/01/04 12:39:13;;;;;;;5.65;1.30;;;22.40;99.90;;;;;;5052904;28;20400;-69
2024/01/04 12:41:45;;;;;;;17.63;2.00;;;22.50;99.90;;;;;;5049573;28;20028;-68
2024/01/04 12:44:14;;;;;;;10.70;1.45;;;22.50;99.90;;;;;;5054112;28;20498;-69
2024/01/04 12:46:43;;;;;;;13.48;2.38;;;22.40;99.90;;;;;;5048659;28;20024;-68